Arundel, Maine
Current Conditions -  °F | °C
As of 5:35 PM on Monday 24 Nov 2014 (Local Time) from KSFM Reporting Station
Overcast Overcast  
Wind Chill: 63°   Ceiling: 3300
Heat Index: 63°   Visibility: 10mi
Dew Point: 55°   Wind: 8mph
Humidity: 77%   Direction: 210°SSW
Pressure: 29.56"   Gusts: 17mph
Location:  43.4079°N, 70.4735°W
Report Text: KSFM 242235Z AUTO 21007G15KT 10SM FEW021 SCT026 OVC033 17/13 A2956 RMK AO1
Loading
Personal Weather Stations






























Interactive Weather Map New forecast layout! Learn more

10-Day Weather Forecast

Advertisements
Track Severe Weather on mobile